Grigoriy Morozov — EMAD — position and weather

sailwx.info

Track history (hours):
 
Tides and Currents Weather Stations Pressure Air Temp Water Temp Dewpoint Dewpoint Depression Visibility Wind Speed Wind Dir Waves Ship Positions

Grigoriy Morozov

Last reported at 2017-Nov-17 17:00 UTC. Time now 2017-Nov-17 17:54 UTC.
Position N 45°15' E 019°31'.

Length 171 m; draft 2.2 m.

Type: Ship. MMSI: 272039800.

Date/timePositionNaut miles runAvg speedWind from/ knotsBaromVisibWave heightAir tempDewpointWater temp
2017-Nov-17 17:00N 45°15' E 019°31'3 5.9
2017-Nov-17 16:30N 45°14' E 019°27'3 6.0
2017-Nov-17 16:01N 45°14' E 019°23'3 6.0
2017-Nov-17 15:31N 45°14' E 019°19'3 6.2
2017-Nov-17 15:00N 45°15' E 019°14'3 6.2
2017-Nov-17 14:31N 45°16' E 019°10'3 6.3
2017-Nov-17 14:01N 45°18' E 019°06'3 5.6
2017-Nov-17 13:31N 45°20' E 019°05'3 5.9
2017-Nov-17 13:01N 45°21' E 019°01'3 5.8
2017-Nov-17 12:31N 45°23' E 018°58'3 5.3
2017-Nov-17 12:00N 45°24' E 019°01'2 5.0
2017-Nov-17 11:31N 45°26' E 018°60'3 5.9
2017-Nov-17 11:01N 45°29' E 018°60'2 5.0
2017-Nov-17 10:31N 45°29' E 019°03'3 5.2
2017-Nov-17 10:01N 45°31' E 019°06'3 5.6
2017-Nov-17 09:30N 45°32' E 019°02'2 3.6
2017-Nov-17 09:01N 45°33' E 018°60'3 5.4
2017-Nov-17 08:30N 45°32' E 018°56'3 5.5
2017-Nov-17 08:00N 45°34' E 018°53'3 5.5
2017-Nov-17 07:31N 45°37' E 018°54'3 5.6
2017-Nov-17 07:01N 45°39' E 018°57'2 4.1
2017-Nov-17 06:31N 45°41' E 018°56'3 5.8
2017-Nov-17 06:01N 45°43' E 018°54'3 6.2
2017-Nov-17 05:30N 45°47' E 018°53'3 5.4
2017-Nov-17 05:00N 45°49' E 018°51'2 3.1
2017-Nov-17 04:27N 45°50' E 018°51'0 0.0
2017-Nov-17 03:33N 45°50' E 018°51'0 0.0
2017-Nov-17 03:21N 45°50' E 018°51'0 0.0
2017-Nov-17 02:54N 45°50' E 018°51'0 0.0
2017-Nov-17 01:27N 45°50' E 018°51'0 0.0
2017-Nov-16 23:39N 45°50' E 018°51'0 0.0
2017-Nov-16 22:33N 45°50' E 018°51'0 0.0
2017-Nov-16 22:21N 45°50' E 018°51'0 0.0
2017-Nov-16 18:57N 45°50' E 018°51'0 0.7
2017-Nov-16 18:29N 45°51' E 018°51'2 4.8
2017-Nov-16 17:59N 45°53' E 018°50'84 3.0
2017-Nov-15 14:19N 47°16' E 018°55'2 6.3
2017-Nov-15 13:55N 47°19' E 018°56'5 5.4
2017-Nov-15 12:55N 47°23' E 019°00'2 5.7
2017-Nov-15 12:30N 47°25' E 019°03'4 7.2
2017-Nov-15 12:00N 47°28' E 019°04'3 6.5
2017-Nov-15 11:30N 47°31' E 019°03'3 6.1
2017-Nov-15 10:58N 47°35' E 019°04'48 1.7
2017-Nov-14 06:42N 47°44' E 017°54'2 7.7
2017-Nov-14 06:27N 47°45' E 017°51'4 7.9
2017-Nov-14 06:00N 47°45' E 017°46'4 8.3
2017-Nov-14 05:29N 47°47' E 017°40'4 8.0
2017-Nov-14 05:00N 47°50' E 017°36'2 4.9
2017-Nov-14 04:30N 47°52' E 017°34'0 0.0
2017-Nov-14 04:00N 47°52' E 017°34'0 0.0
2017-Nov-14 03:15N 47°52' E 017°34'0 0.0
2017-Nov-14 02:42N 47°52' E 017°34'0 0.0
2017-Nov-14 02:27N 47°52' E 017°34'0 0.0
2017-Nov-14 02:00N 47°52' E 017°34'0 0.0
2017-Nov-14 01:30N 47°52' E 017°34'0 0.0
2017-Nov-14 01:00N 47°52' E 017°34'0 0.0
2017-Nov-14 00:30N 47°52' E 017°34'0 0.0
2017-Nov-13 23:57N 47°52' E 017°34'0 0.0
2017-Nov-13 23:24N 47°52' E 017°34'0 0.0
2017-Nov-13 23:00N 47°52' E 017°34'0 0.0
2017-Nov-13 22:30N 47°52' E 017°34'0 0.0
2017-Nov-13 22:00N 47°52' E 017°34'  
2017-Nov-09 12:02N 48°10' E 016°29'0 4.3
2017-Nov-09 12:00N 48°10' E 016°29'  
Track history (hours):
 
Tides and Currents Weather Stations Pressure Air Temp Water Temp Dewpoint Dewpoint Depression Visibility Wind Speed Wind Dir Waves Ship Positions

Grigoriy Morozov

Last reported at 2017-Nov-17 17:00 UTC. Time now 2017-Nov-17 17:54 UTC.
Position N 45°15' E 019°31'.

Length 171 m; draft 2.2 m.

Type: Ship. MMSI: 272039800.

Date/timePositionNaut miles runAvg speedWind from/ knotsBaromVisibWave heightAir tempDewpointWater temp
2017-Nov-17 17:00N 45°15' E 019°31'3 5.9
2017-Nov-17 16:30N 45°14' E 019°27'3 6.0
2017-Nov-17 16:01N 45°14' E 019°23'3 6.0
2017-Nov-17 15:31N 45°14' E 019°19'3 6.2
2017-Nov-17 15:00N 45°15' E 019°14'3 6.2
2017-Nov-17 14:31N 45°16' E 019°10'3 6.3
2017-Nov-17 14:01N 45°18' E 019°06'3 5.6
2017-Nov-17 13:31N 45°20' E 019°05'3 5.9
2017-Nov-17 13:01N 45°21' E 019°01'3 5.8
2017-Nov-17 12:31N 45°23' E 018°58'3 5.3
2017-Nov-17 12:00N 45°24' E 019°01'2 5.0
2017-Nov-17 11:31N 45°26' E 018°60'3 5.9
2017-Nov-17 11:01N 45°29' E 018°60'2 5.0
2017-Nov-17 10:31N 45°29' E 019°03'3 5.2
2017-Nov-17 10:01N 45°31' E 019°06'3 5.6
2017-Nov-17 09:30N 45°32' E 019°02'2 3.6
2017-Nov-17 09:01N 45°33' E 018°60'3 5.4
2017-Nov-17 08:30N 45°32' E 018°56'3 5.5
2017-Nov-17 08:00N 45°34' E 018°53'3 5.5
2017-Nov-17 07:31N 45°37' E 018°54'3 5.6
2017-Nov-17 07:01N 45°39' E 018°57'2 4.1
2017-Nov-17 06:31N 45°41' E 018°56'3 5.8
2017-Nov-17 06:01N 45°43' E 018°54'3 6.2
2017-Nov-17 05:30N 45°47' E 018°53'3 5.4
2017-Nov-17 05:00N 45°49' E 018°51'2 3.1
2017-Nov-17 04:27N 45°50' E 018°51'0 0.0
2017-Nov-17 03:33N 45°50' E 018°51'0 0.0
2017-Nov-17 03:21N 45°50' E 018°51'0 0.0
2017-Nov-17 02:54N 45°50' E 018°51'0 0.0
2017-Nov-17 01:27N 45°50' E 018°51'0 0.0
2017-Nov-16 23:39N 45°50' E 018°51'0 0.0
2017-Nov-16 22:33N 45°50' E 018°51'0 0.0
2017-Nov-16 22:21N 45°50' E 018°51'0 0.0
2017-Nov-16 18:57N 45°50' E 018°51'0 0.7
2017-Nov-16 18:29N 45°51' E 018°51'2 4.8
2017-Nov-16 17:59N 45°53' E 018°50'84 3.0
2017-Nov-15 14:19N 47°16' E 018°55'2 6.3
2017-Nov-15 13:55N 47°19' E 018°56'5 5.4
2017-Nov-15 12:55N 47°23' E 019°00'2 5.7
2017-Nov-15 12:30N 47°25' E 019°03'4 7.2
2017-Nov-15 12:00N 47°28' E 019°04'3 6.5
2017-Nov-15 11:30N 47°31' E 019°03'3 6.1
2017-Nov-15 10:58N 47°35' E 019°04'48 1.7
2017-Nov-14 06:42N 47°44' E 017°54'2 7.7
2017-Nov-14 06:27N 47°45' E 017°51'4 7.9
2017-Nov-14 06:00N 47°45' E 017°46'4 8.3
2017-Nov-14 05:29N 47°47' E 017°40'4 8.0
2017-Nov-14 05:00N 47°50' E 017°36'2 4.9
2017-Nov-14 04:30N 47°52' E 017°34'0 0.0
2017-Nov-14 04:00N 47°52' E 017°34'0 0.0
2017-Nov-14 03:15N 47°52' E 017°34'0 0.0
2017-Nov-14 02:42N 47°52' E 017°34'0 0.0
2017-Nov-14 02:27N 47°52' E 017°34'0 0.0
2017-Nov-14 02:00N 47°52' E 017°34'0 0.0
2017-Nov-14 01:30N 47°52' E 017°34'0 0.0
2017-Nov-14 01:00N 47°52' E 017°34'0 0.0
2017-Nov-14 00:30N 47°52' E 017°34'0 0.0
2017-Nov-13 23:57N 47°52' E 017°34'0 0.0
2017-Nov-13 23:24N 47°52' E 017°34'0 0.0
2017-Nov-13 23:00N 47°52' E 017°34'0 0.0
2017-Nov-13 22:30N 47°52' E 017°34'0 0.0
2017-Nov-13 22:00N 47°52' E 017°34'  
2017-Nov-09 12:02N 48°10' E 016°29'0 4.3
2017-Nov-09 12:00N 48°10' E 016°29'  

Dump ship's entire track history